sensor_id;sensor_type;location;lat;lon;timestamp;temperature;humidity
57552;DHT22;43379;48.160;14.036;2023-03-04T00:02:18;6.30;99.90
57552;DHT22;43379;48.160;14.036;2023-03-04T00:04:44;6.30;99.90
57552;DHT22;43379;48.160;14.036;2023-03-04T00:07:10;6.20;99.90
57552;DHT22;43379;48.160;14.036;2023-03-04T00:09:36;6.20;99.90
57552;DHT22;43379;48.160;14.036;2023-03-04T00:12:02;6.20;99.90
57552;DHT22;43379;48.160;14.036;2023-03-04T00:14:28;6.30;99.90
57552;DHT22;43379;48.160;14.036;2023-03-04T00:16:54;6.20;99.90
57552;DHT22;43379;48.160;14.036;2023-03-04T00:19:19;6.20;99.90
57552;DHT22;43379;48.160;14.036;2023-03-04T00:21:46;6.10;99.90
57552;DHT22;43379;48.160;14.036;2023-03-04T00:24:12;6.20;99.90
57552;DHT22;43379;48.160;14.036;2023-03-04T00:26:37;6.20;99.90
57552;DHT22;43379;48.160;14.036;2023-03-04T00:29:03;6.20;99.90
57552;DHT22;43379;48.160;14.036;2023-03-04T00:31:28;6.20;99.90
57552;DHT22;43379;48.160;14.036;2023-03-04T00:33:54;6.20;99.90
57552;DHT22;43379;48.160;14.036;2023-03-04T00:36:20;6.20;99.90
57552;DHT22;43379;48.160;14.036;2023-03-04T00:38:45;6.10;99.90
57552;DHT22;43379;48.160;14.036;2023-03-04T00:41:11;6.10;99.90
57552;DHT22;43379;48.160;14.036;2023-03-04T00:43:36;6.10;99.90
57552;DHT22;43379;48.160;14.036;2023-03-04T00:46:02;6.10;99.90
57552;DHT22;43379;48.160;14.036;2023-03-04T00:48:28;6.10;99.90
57552;DHT22;43379;48.160;14.036;2023-03-04T00:50:53;6.00;99.90
57552;DHT22;43379;48.160;14.036;2023-03-04T00:53:20;6.00;99.90
57552;DHT22;43379;48.160;14.036;2023-03-04T00:55:45;5.90;99.90
57552;DHT22;43379;48.160;14.036;2023-03-04T00:58:11;6.00;99.90
57552;DHT22;43379;48.160;14.036;2023-03-04T01:00:37;5.90;99.90
57552;DHT22;43379;48.160;14.036;2023-03-04T01:03:02;5.90;99.90
57552;DHT22;43379;48.160;14.036;2023-03-04T01:05:28;5.90;99.90
57552;DHT22;43379;48.160;14.036;2023-03-04T01:07:54;5.80;99.90
57552;DHT22;43379;48.160;14.036;2023-03-04T01:10:19;5.80;99.90
57552;DHT22;43379;48.160;14.036;2023-03-04T01:12:45;5.80;99.90
57552;DHT22;43379;48.160;14.036;2023-03-04T01:15:12;5.80;99.90
57552;DHT22;43379;48.160;14.036;2023-03-04T01:17:39;5.70;99.90
57552;DHT22;43379;48.160;14.036;2023-03-04T01:20:06;5.70;99.90
57552;DHT22;43379;48.160;14.036;2023-03-04T01:22:32;5.60;99.90
57552;DHT22;43379;48.160;14.036;2023-03-04T01:24:58;5.60;99.90
57552;DHT22;43379;48.160;14.036;2023-03-04T01:27:23;5.70;99.90
57552;DHT22;43379;48.160;14.036;2023-03-04T01:29:49;5.60;99.90
57552;DHT22;43379;48.160;14.036;2023-03-04T01:32:14;5.60;99.90
57552;DHT22;43379;48.160;14.036;2023-03-04T01:34:40;5.60;99.90
57552;DHT22;43379;48.160;14.036;2023-03-04T01:37:06;5.60;99.90
57552;DHT22;43379;48.160;14.036;2023-03-04T01:39:32;5.60;99.90
57552;DHT22;43379;48.160;14.036;2023-03-04T01:41:57;5.60;99.90
57552;DHT22;43379;48.160;14.036;2023-03-04T01:44:23;5.60;99.90
57552;DHT22;43379;48.160;14.036;2023-03-04T01:46:52;5.60;99.90
57552;DHT22;43379;48.160;14.036;2023-03-04T01:49:19;5.60;99.90
57552;DHT22;43379;48.160;14.036;2023-03-04T01:51:50;5.60;99.90
57552;DHT22;43379;48.160;14.036;2023-03-04T01:54:17;5.50;99.90
57552;DHT22;43379;48.160;14.036;2023-03-04T01:56:45;5.50;99.90
57552;DHT22;43379;48.160;14.036;2023-03-04T02:01:46;5.50;99.90
57552;DHT22;43379;48.160;14.036;2023-03-04T02:04:13;5.50;99.90
57552;DHT22;43379;48.160;14.036;2023-03-04T02:06:40;5.40;99.90
57552;DHT22;43379;48.160;14.036;2023-03-04T02:09:07;5.40;99.90
57552;DHT22;43379;48.160;14.036;2023-03-04T02:11:34;5.40;99.90
57552;DHT22;43379;48.160;14.036;2023-03-04T02:14:00;5.40;99.90
57552;DHT22;43379;48.160;14.036;2023-03-04T02:16:26;5.30;99.90
57552;DHT22;43379;48.160;14.036;2023-03-04T02:18:52;5.30;99.90
57552;DHT22;43379;48.160;14.036;2023-03-04T02:21:26;5.30;99.90
57552;DHT22;43379;48.160;14.036;2023-03-04T02:26:30;5.30;99.90
57552;DHT22;43379;48.160;14.036;2023-03-04T02:28:57;5.30;99.90
57552;DHT22;43379;48.160;14.036;2023-03-04T02:31:25;5.30;99.90
57552;DHT22;43379;48.160;14.036;2023-03-04T02:33:53;5.30;99.90
57552;DHT22;43379;48.160;14.036;2023-03-04T02:36:21;5.20;99.90
57552;DHT22;43379;48.160;14.036;2023-03-04T02:38:49;5.20;99.90
57552;DHT22;43379;48.160;14.036;2023-03-04T02:41:17;5.20;99.90
57552;DHT22;43379;48.160;14.036;2023-03-04T02:43:48;5.10;99.90
57552;DHT22;43379;48.160;14.036;2023-03-04T02:46:14;5.10;99.90
57552;DHT22;43379;48.160;14.036;2023-03-04T02:48:39;5.20;99.90
57552;DHT22;43379;48.160;14.036;2023-03-04T02:51:05;5.20;99.90
57552;DHT22;43379;48.160;14.036;2023-03-04T02:53:31;5.20;99.90
57552;DHT22;43379;48.160;14.036;2023-03-04T02:55:56;5.20;99.90
57552;DHT22;43379;48.160;14.036;2023-03-04T02:58:22;5.20;99.90
57552;DHT22;43379;48.160;14.036;2023-03-04T03:00:48;5.10;99.90
57552;DHT22;43379;48.160;14.036;2023-03-04T03:03:13;5.10;99.90
57552;DHT22;43379;48.160;14.036;2023-03-04T03:05:39;5.10;99.90
57552;DHT22;43379;48.160;14.036;2023-03-04T03:08:05;5.10;99.90
57552;DHT22;43379;48.160;14.036;2023-03-04T03:10:31;5.10;99.90
57552;DHT22;43379;48.160;14.036;2023-03-04T03:12:57;5.10;99.90
57552;DHT22;43379;48.160;14.036;2023-03-04T03:15:22;5.10;99.90
57552;DHT22;43379;48.160;14.036;2023-03-04T03:17:48;5.10;99.90
57552;DHT22;43379;48.160;14.036;2023-03-04T03:20:15;5.10;99.90
57552;DHT22;43379;48.160;14.036;2023-03-04T03:22:41;5.00;99.90
57552;DHT22;43379;48.160;14.036;2023-03-04T03:25:07;5.00;99.90
57552;DHT22;43379;48.160;14.036;2023-03-04T03:27:33;5.00;99.90
57552;DHT22;43379;48.160;14.036;2023-03-04T03:29:59;5.00;99.90
57552;DHT22;43379;48.160;14.036;2023-03-04T03:32:25;5.00;99.90
57552;DHT22;43379;48.160;14.036;2023-03-04T03:34:50;4.90;99.90
57552;DHT22;43379;48.160;14.036;2023-03-04T03:37:17;4.90;99.90
57552;DHT22;43379;48.160;14.036;2023-03-04T03:39:43;5.00;99.90
57552;DHT22;43379;48.160;14.036;2023-03-04T03:42:08;5.00;99.90
57552;DHT22;43379;48.160;14.036;2023-03-04T03:44:34;4.90;99.90
57552;DHT22;43379;48.160;14.036;2023-03-04T03:46:59;5.00;99.90
57552;DHT22;43379;48.160;14.036;2023-03-04T03:49:25;4.90;99.90
57552;DHT22;43379;48.160;14.036;2023-03-04T03:51:51;4.90;99.90
57552;DHT22;43379;48.160;14.036;2023-03-04T03:54:16;4.90;99.90
57552;DHT22;43379;48.160;14.036;2023-03-04T03:56:42;4.90;99.90
57552;DHT22;43379;48.160;14.036;2023-03-04T03:59:08;4.90;99.90
57552;DHT22;43379;48.160;14.036;2023-03-04T04:01:33;4.90;99.90
57552;DHT22;43379;48.160;14.036;2023-03-04T04:03:59;4.90;99.90
57552;DHT22;43379;48.160;14.036;2023-03-04T04:06:26;4.90;99.90
57552;DHT22;43379;48.160;14.036;2023-03-04T04:08:51;4.90;99.90
57552;DHT22;43379;48.160;14.036;2023-03-04T04:11:17;4.90;99.90
57552;DHT22;43379;48.160;14.036;2023-03-04T04:13:43;4.90;99.90
57552;DHT22;43379;48.160;14.036;2023-03-04T04:16:09;4.90;99.90
57552;DHT22;43379;48.160;14.036;2023-03-04T04:18:35;4.90;99.90
57552;DHT22;43379;48.160;14.036;2023-03-04T04:21:01;4.90;99.90
57552;DHT22;43379;48.160;14.036;2023-03-04T04:23:27;4.90;99.90
57552;DHT22;43379;48.160;14.036;2023-03-04T04:25:56;4.90;99.90
57552;DHT22;43379;48.160;14.036;2023-03-04T04:28:22;4.90;99.90
57552;DHT22;43379;48.160;14.036;2023-03-04T04:30:48;5.00;99.90
57552;DHT22;43379;48.160;14.036;2023-03-04T04:33:14;4.90;99.90
57552;DHT22;43379;48.160;14.036;2023-03-04T04:35:39;4.90;99.90
57552;DHT22;43379;48.160;14.036;2023-03-04T04:38:06;4.90;99.90
57552;DHT22;43379;48.160;14.036;2023-03-04T04:40:31;5.00;99.90
57552;DHT22;43379;48.160;14.036;2023-03-04T04:42:57;5.00;99.90
57552;DHT22;43379;48.160;14.036;2023-03-04T04:45:23;4.90;99.90
57552;DHT22;43379;48.160;14.036;2023-03-04T04:47:50;5.00;99.90
57552;DHT22;43379;48.160;14.036;2023-03-04T04:50:16;4.90;99.90
57552;DHT22;43379;48.160;14.036;2023-03-04T04:52:41;4.90;99.90
57552;DHT22;43379;48.160;14.036;2023-03-04T04:55:07;4.90;99.90
57552;DHT22;43379;48.160;14.036;2023-03-04T04:57:33;4.90;99.90
57552;DHT22;43379;48.160;14.036;2023-03-04T04:59:59;4.90;99.90
57552;DHT22;43379;48.160;14.036;2023-03-04T05:02:24;4.90;99.90
57552;DHT22;43379;48.160;14.036;2023-03-04T05:04:50;4.80;99.90
57552;DHT22;43379;48.160;14.036;2023-03-04T05:07:16;4.80;99.90
57552;DHT22;43379;48.160;14.036;2023-03-04T05:09:42;4.80;99.90
57552;DHT22;43379;48.160;14.036;2023-03-04T05:12:07;4.80;99.90
57552;DHT22;43379;48.160;14.036;2023-03-04T05:14:33;4.80;99.90
57552;DHT22;43379;48.160;14.036;2023-03-04T05:16:59;4.70;99.90
57552;DHT22;43379;48.160;14.036;2023-03-04T05:19:24;4.70;99.90
57552;DHT22;43379;48.160;14.036;2023-03-04T05:21:50;4.70;99.90
57552;DHT22;43379;48.160;14.036;2023-03-04T05:24:15;4.60;99.90
57552;DHT22;43379;48.160;14.036;2023-03-04T05:26:41;4.60;99.90
57552;DHT22;43379;48.160;14.036;2023-03-04T05:29:07;4.60;99.90
57552;DHT22;43379;48.160;14.036;2023-03-04T05:31:32;4.60;99.90
57552;DHT22;43379;48.160;14.036;2023-03-04T05:33:58;4.70;99.90
57552;DHT22;43379;48.160;14.036;2023-03-04T05:36:24;4.70;99.90
57552;DHT22;43379;48.160;14.036;2023-03-04T05:38:49;4.60;99.90
57552;DHT22;43379;48.160;14.036;2023-03-04T05:41:15;4.70;99.90
57552;DHT22;43379;48.160;14.036;2023-03-04T05:43:43;4.70;99.90
57552;DHT22;43379;48.160;14.036;2023-03-04T05:46:16;4.60;99.90
57552;DHT22;43379;48.160;14.036;2023-03-04T05:48:43;4.50;99.90
57552;DHT22;43379;48.160;14.036;2023-03-04T05:51:09;4.60;99.90
57552;DHT22;43379;48.160;14.036;2023-03-04T05:53:35;4.70;99.90
57552;DHT22;43379;48.160;14.036;2023-03-04T05:56:10;4.60;99.90
57552;DHT22;43379;48.160;14.036;2023-03-04T05:58:36;4.60;99.90
57552;DHT22;43379;48.160;14.036;2023-03-04T06:01:02;4.60;99.90
57552;DHT22;43379;48.160;14.036;2023-03-04T06:03:28;4.60;99.90
57552;DHT22;43379;48.160;14.036;2023-03-04T06:05:54;4.60;99.90
57552;DHT22;43379;48.160;14.036;2023-03-04T06:08:20;4.50;99.90
57552;DHT22;43379;48.160;14.036;2023-03-04T06:10:45;4.60;99.90
57552;DHT22;43379;48.160;14.036;2023-03-04T06:13:12;4.50;99.90
57552;DHT22;43379;48.160;14.036;2023-03-04T06:15:38;4.60;99.90
57552;DHT22;43379;48.160;14.036;2023-03-04T06:18:05;4.60;99.90
57552;DHT22;43379;48.160;14.036;2023-03-04T06:20:31;4.60;99.90
57552;DHT22;43379;48.160;14.036;2023-03-04T06:22:57;4.70;99.90
57552;DHT22;43379;48.160;14.036;2023-03-04T06:25:23;4.70;99.90
57552;DHT22;43379;48.160;14.036;2023-03-04T06:27:49;4.80;99.90
57552;DHT22;43379;48.160;14.036;2023-03-04T06:30:15;4.80;99.90
57552;DHT22;43379;48.160;14.036;2023-03-04T06:32:41;4.90;99.90
57552;DHT22;43379;48.160;14.036;2023-03-04T06:35:09;4.90;99.90
57552;DHT22;43379;48.160;14.036;2023-03-04T06:37:36;4.90;99.90
57552;DHT22;43379;48.160;14.036;2023-03-04T06:40:01;5.00;99.90
57552;DHT22;43379;48.160;14.036;2023-03-04T06:42:28;5.00;99.90
57552;DHT22;43379;48.160;14.036;2023-03-04T06:44:53;5.00;99.90
57552;DHT22;43379;48.160;14.036;2023-03-04T06:47:19;5.10;99.90
57552;DHT22;43379;48.160;14.036;2023-03-04T06:49:45;5.20;99.90
57552;DHT22;43379;48.160;14.036;2023-03-04T06:52:10;5.30;99.90
57552;DHT22;43379;48.160;14.036;2023-03-04T06:54:37;5.40;99.90
57552;DHT22;43379;48.160;14.036;2023-03-04T06:57:03;5.50;99.90
57552;DHT22;43379;48.160;14.036;2023-03-04T06:59:29;5.50;99.90
57552;DHT22;43379;48.160;14.036;2023-03-04T07:01:55;5.60;99.90
57552;DHT22;43379;48.160;14.036;2023-03-04T07:04:20;5.70;99.90
57552;DHT22;43379;48.160;14.036;2023-03-04T07:06:48;5.80;99.90
57552;DHT22;43379;48.160;14.036;2023-03-04T07:09:13;5.80;99.90
57552;DHT22;43379;48.160;14.036;2023-03-04T07:11:39;5.90;99.90
57552;DHT22;43379;48.160;14.036;2023-03-04T07:14:05;5.90;99.90
57552;DHT22;43379;48.160;14.036;2023-03-04T07:16:30;5.90;99.90
57552;DHT22;43379;48.160;14.036;2023-03-04T07:18:56;5.90;99.90
57552;DHT22;43379;48.160;14.036;2023-03-04T07:21:22;6.00;99.90
57552;DHT22;43379;48.160;14.036;2023-03-04T07:23:47;6.10;99.90
57552;DHT22;43379;48.160;14.036;2023-03-04T07:26:13;6.20;99.90
57552;DHT22;43379;48.160;14.036;2023-03-04T07:28:39;6.20;99.90
57552;DHT22;43379;48.160;14.036;2023-03-04T07:31:16;6.30;99.90
57552;DHT22;43379;48.160;14.036;2023-03-04T07:33:44;6.30;99.90
57552;DHT22;43379;48.160;14.036;2023-03-04T07:36:09;6.50;99.90
57552;DHT22;43379;48.160;14.036;2023-03-04T07:38:35;6.50;99.90
57552;DHT22;43379;48.160;14.036;2023-03-04T07:41:02;6.60;99.90
57552;DHT22;43379;48.160;14.036;2023-03-04T07:43:27;6.80;99.90
57552;DHT22;43379;48.160;14.036;2023-03-04T07:45:58;7.10;99.90
57552;DHT22;43379;48.160;14.036;2023-03-04T07:48:25;7.80;99.90
57552;DHT22;43379;48.160;14.036;2023-03-04T07:51:11;8.80;99.90
57552;DHT22;43379;48.160;14.036;2023-03-04T07:53:39;9.90;99.90
57552;DHT22;43379;48.160;14.036;2023-03-04T07:56:06;11.00;99.10
57552;DHT22;43379;48.160;14.036;2023-03-04T07:58:32;12.00;96.90
57552;DHT22;43379;48.160;14.036;2023-03-04T08:00:58;12.70;95.70
57552;DHT22;43379;48.160;14.036;2023-03-04T08:03:24;13.50;95.10
57552;DHT22;43379;48.160;14.036;2023-03-04T08:05:50;13.80;92.60
57552;DHT22;43379;48.160;14.036;2023-03-04T08:08:16;14.20;91.10
57552;DHT22;43379;48.160;14.036;2023-03-04T08:10:42;14.70;89.70
57552;DHT22;43379;48.160;14.036;2023-03-04T08:13:09;15.10;87.10
57552;DHT22;43379;48.160;14.036;2023-03-04T08:15:39;15.30;83.70
57552;DHT22;43379;48.160;14.036;2023-03-04T08:18:05;15.90;80.90
57552;DHT22;43379;48.160;14.036;2023-03-04T08:20:31;16.10;77.30
57552;DHT22;43379;48.160;14.036;2023-03-04T08:22:56;16.60;77.60
57552;DHT22;43379;48.160;14.036;2023-03-04T08:25:22;16.90;74.80
57552;DHT22;43379;48.160;14.036;2023-03-04T08:27:48;17.10;74.00
57552;DHT22;43379;48.160;14.036;2023-03-04T08:30:13;17.40;70.90
57552;DHT22;43379;48.160;14.036;2023-03-04T08:32:39;17.70;68.80
57552;DHT22;43379;48.160;14.036;2023-03-04T08:35:05;18.00;68.30
57552;DHT22;43379;48.160;14.036;2023-03-04T08:37:31;18.10;66.90
57552;DHT22;43379;48.160;14.036;2023-03-04T08:39:56;18.40;66.00
57552;DHT22;43379;48.160;14.036;2023-03-04T08:42:22;18.90;62.60
57552;DHT22;43379;48.160;14.036;2023-03-04T08:44:49;19.30;61.20
57552;DHT22;43379;48.160;14.036;2023-03-04T08:47:14;19.40;59.90
57552;DHT22;43379;48.160;14.036;2023-03-04T08:49:40;19.40;59.60
57552;DHT22;43379;48.160;14.036;2023-03-04T08:52:06;19.20;58.80
57552;DHT22;43379;48.160;14.036;2023-03-04T08:54:32;19.40;58.70
57552;DHT22;43379;48.160;14.036;2023-03-04T08:56:57;20.00;57.80
57552;DHT22;43379;48.160;14.036;2023-03-04T08:59:23;20.30;57.60
57552;DHT22;43379;48.160;14.036;2023-03-04T09:01:49;20.80;56.50
57552;DHT22;43379;48.160;14.036;2023-03-04T09:04:14;20.70;56.00
57552;DHT22;43379;48.160;14.036;2023-03-04T09:06:40;20.40;55.60
57552;DHT22;43379;48.160;14.036;2023-03-04T09:09:06;20.00;55.90
57552;DHT22;43379;48.160;14.036;2023-03-04T09:11:31;19.70;55.90
57552;DHT22;43379;48.160;14.036;2023-03-04T09:13:57;19.50;56.90
57552;DHT22;43379;48.160;14.036;2023-03-04T09:16:23;19.40;55.70
57552;DHT22;43379;48.160;14.036;2023-03-04T09:18:48;19.30;56.50
57552;DHT22;43379;48.160;14.036;2023-03-04T09:21:14;19.90;56.50
57552;DHT22;43379;48.160;14.036;2023-03-04T09:23:40;20.10;56.70
57552;DHT22;43379;48.160;14.036;2023-03-04T09:26:21;20.30;56.30
57552;DHT22;43379;48.160;14.036;2023-03-04T09:29:05;20.90;55.30
57552;DHT22;43379;48.160;14.036;2023-03-04T09:31:31;21.40;54.10
57552;DHT22;43379;48.160;14.036;2023-03-04T09:33:58;21.50;54.10
57552;DHT22;43379;48.160;14.036;2023-03-04T09:36:24;22.20;54.60
57552;DHT22;43379;48.160;14.036;2023-03-04T09:38:50;22.40;52.90
57552;DHT22;43379;48.160;14.036;2023-03-04T09:41:23;22.40;52.20
57552;DHT22;43379;48.160;14.036;2023-03-04T09:43:51;22.50;52.30
57552;DHT22;43379;48.160;14.036;2023-03-04T09:46:31;22.80;51.90
57552;DHT22;43379;48.160;14.036;2023-03-04T09:48:57;22.60;51.10
57552;DHT22;43379;48.160;14.036;2023-03-04T09:56:50;22.10;51.10
57552;DHT22;43379;48.160;14.036;2023-03-04T09:59:37;21.80;52.00
57552;DHT22;43379;48.160;14.036;2023-03-04T10:02:31;21.90;52.20
57552;DHT22;43379;48.160;14.036;2023-03-04T10:05:01;21.90;51.50
57552;DHT22;43379;48.160;14.036;2023-03-04T10:07:33;22.10;51.40
57552;DHT22;43379;48.160;14.036;2023-03-04T10:12:33;22.30;49.20
57552;DHT22;43379;48.160;14.036;2023-03-04T10:17:53;21.60;50.20
57552;DHT22;43379;48.160;14.036;2023-03-04T10:20:43;21.10;50.60
57552;DHT22;43379;48.160;14.036;2023-03-04T10:23:18;21.00;51.10
57552;DHT22;43379;48.160;14.036;2023-03-04T10:25:45;20.20;51.60
57552;DHT22;43379;48.160;14.036;2023-03-04T10:28:28;19.50;52.60
57552;DHT22;43379;48.160;14.036;2023-03-04T10:31:05;18.90;53.80
57552;DHT22;43379;48.160;14.036;2023-03-04T10:33:36;18.70;54.60
57552;DHT22;43379;48.160;14.036;2023-03-04T10:38:33;18.10;56.10
57552;DHT22;43379;48.160;14.036;2023-03-04T10:41:01;18.10;56.30
57552;DHT22;43379;48.160;14.036;2023-03-04T10:43:35;17.40;55.70
57552;DHT22;43379;48.160;14.036;2023-03-04T10:46:00;17.30;56.50
57552;DHT22;43379;48.160;14.036;2023-03-04T10:48:29;17.20;56.60
57552;DHT22;43379;48.160;14.036;2023-03-04T10:51:18;17.10;57.00
57552;DHT22;43379;48.160;14.036;2023-03-04T10:53:45;17.00;57.40
57552;DHT22;43379;48.160;14.036;2023-03-04T11:01:59;16.50;57.10
57552;DHT22;43379;48.160;14.036;2023-03-04T11:04:26;16.20;56.90
57552;DHT22;43379;48.160;14.036;2023-03-04T11:06:53;16.00;57.30
57552;DHT22;43379;48.160;14.036;2023-03-04T11:09:30;15.90;57.90
57552;DHT22;43379;48.160;14.036;2023-03-04T11:11:59;15.90;57.90
57552;DHT22;43379;48.160;14.036;2023-03-04T11:14:41;16.00;58.50
57552;DHT22;43379;48.160;14.036;2023-03-04T11:17:24;15.80;58.50
57552;DHT22;43379;48.160;14.036;2023-03-04T11:19:58;15.80;57.90
57552;DHT22;43379;48.160;14.036;2023-03-04T11:22:27;15.80;58.60
57552;DHT22;43379;48.160;14.036;2023-03-04T11:25:01;15.80;59.80
57552;DHT22;43379;48.160;14.036;2023-03-04T11:32:47;15.90;57.60
57552;DHT22;43379;48.160;14.036;2023-03-04T11:35:31;15.90;57.60
57552;DHT22;43379;48.160;14.036;2023-03-04T11:38:22;15.80;57.20
57552;DHT22;43379;48.160;14.036;2023-03-04T11:40:56;15.60;57.90
57552;DHT22;43379;48.160;14.036;2023-03-04T11:43:34;15.60;57.70
57552;DHT22;43379;48.160;14.036;2023-03-04T11:48:44;15.60;59.00
57552;DHT22;43379;48.160;14.036;2023-03-04T11:51:22;15.40;57.90
57552;DHT22;43379;48.160;14.036;2023-03-04T11:59:44;15.00;59.10
57552;DHT22;43379;48.160;14.036;2023-03-04T12:05:28;15.10;59.30
57552;DHT22;43379;48.160;14.036;2023-03-04T12:08:22;15.00;59.40
57552;DHT22;43379;48.160;14.036;2023-03-04T12:11:04;15.00;59.50
57552;DHT22;43379;48.160;14.036;2023-03-04T12:13:41;15.10;59.60
57552;DHT22;43379;48.160;14.036;2023-03-04T12:16:28;15.10;60.00
57552;DHT22;43379;48.160;14.036;2023-03-04T12:24:46;14.90;61.00
57552;DHT22;43379;48.160;14.036;2023-03-04T12:27:21;14.90;60.10
57552;DHT22;43379;48.160;14.036;2023-03-04T12:35:20;14.60;61.20
57552;DHT22;43379;48.160;14.036;2023-03-04T12:37:58;14.40;61.30
57552;DHT22;43379;48.160;14.036;2023-03-04T12:45:58;14.10;62.20
57552;DHT22;43379;48.160;14.036;2023-03-04T12:48:36;14.10;63.00
57552;DHT22;43379;48.160;14.036;2023-03-04T12:56:32;14.40;61.90
57552;DHT22;43379;48.160;14.036;2023-03-04T12:58:59;14.50;61.70
57552;DHT22;43379;48.160;14.036;2023-03-04T13:01:38;14.50;61.70
57552;DHT22;43379;48.160;14.036;2023-03-04T13:04:34;14.40;60.60
57552;DHT22;43379;48.160;14.036;2023-03-04T13:07:33;14.30;59.90
57552;DHT22;43379;48.160;14.036;2023-03-04T13:10:10;14.30;61.20
57552;DHT22;43379;48.160;14.036;2023-03-04T13:12:55;14.10;59.50
57552;DHT22;43379;48.160;14.036;2023-03-04T13:17:53;13.90;59.80
57552;DHT22;43379;48.160;14.036;2023-03-04T13:20:39;13.90;60.80
57552;DHT22;43379;48.160;14.036;2023-03-04T13:25:44;13.90;60.00
57552;DHT22;43379;48.160;14.036;2023-03-04T13:35:56;13.90;63.00
57552;DHT22;43379;48.160;14.036;2023-03-04T13:41:20;13.90;63.60
57552;DHT22;43379;48.160;14.036;2023-03-04T13:51:30;13.90;59.80
57552;DHT22;43379;48.160;14.036;2023-03-04T14:04:21;13.70;63.90
57552;DHT22;43379;48.160;14.036;2023-03-04T14:06:49;13.70;65.10
57552;DHT22;43379;48.160;14.036;2023-03-04T14:09:19;13.60;64.70
57552;DHT22;43379;48.160;14.036;2023-03-04T14:11:46;13.40;65.00
57552;DHT22;43379;48.160;14.036;2023-03-04T14:14:15;13.20;65.70
57552;DHT22;43379;48.160;14.036;2023-03-04T14:17:14;13.00;66.30
57552;DHT22;43379;48.160;14.036;2023-03-04T14:19:45;12.90;66.80
57552;DHT22;43379;48.160;14.036;2023-03-04T14:22:24;12.80;67.30
57552;DHT22;43379;48.160;14.036;2023-03-04T14:25:05;12.80;67.50
57552;DHT22;43379;48.160;14.036;2023-03-04T14:27:33;12.70;67.10
57552;DHT22;43379;48.160;14.036;2023-03-04T14:30:03;12.60;67.80
57552;DHT22;43379;48.160;14.036;2023-03-04T14:32:30;12.50;67.90
57552;DHT22;43379;48.160;14.036;2023-03-04T14:35:17;12.40;68.40
57552;DHT22;43379;48.160;14.036;2023-03-04T14:38:06;12.30;68.50
57552;DHT22;43379;48.160;14.036;2023-03-04T14:40:45;12.20;68.50
57552;DHT22;43379;48.160;14.036;2023-03-04T14:43:21;12.00;68.60
57552;DHT22;43379;48.160;14.036;2023-03-04T14:45:58;11.80;68.70
57552;DHT22;43379;48.160;14.036;2023-03-04T14:48:33;11.70;69.50
57552;DHT22;43379;48.160;14.036;2023-03-04T14:51:00;11.50;69.60
57552;DHT22;43379;48.160;14.036;2023-03-04T14:53:28;11.30;69.30
57552;DHT22;43379;48.160;14.036;2023-03-04T14:58:27;11.20;70.60
57552;DHT22;43379;48.160;14.036;2023-03-04T15:03:37;11.10;70.60
57552;DHT22;43379;48.160;14.036;2023-03-04T15:06:22;10.90;70.70
57552;DHT22;43379;48.160;14.036;2023-03-04T15:09:20;10.80;70.20
57552;DHT22;43379;48.160;14.036;2023-03-04T15:12:29;10.60;70.40
57552;DHT22;43379;48.160;14.036;2023-03-04T15:14:53;10.30;71.30
57552;DHT22;43379;48.160;14.036;2023-03-04T15:17:40;10.10;71.60
57552;DHT22;43379;48.160;14.036;2023-03-04T15:22:58;9.80;73.00
57552;DHT22;43379;48.160;14.036;2023-03-04T15:25:24;9.70;73.80
57552;DHT22;43379;48.160;14.036;2023-03-04T15:27:50;9.50;73.70
57552;DHT22;43379;48.160;14.036;2023-03-04T15:30:25;9.30;73.60
57552;DHT22;43379;48.160;14.036;2023-03-04T15:32:55;9.20;74.10
57552;DHT22;43379;48.160;14.036;2023-03-04T15:35:22;9.10;74.40
57552;DHT22;43379;48.160;14.036;2023-03-04T15:37:50;9.00;74.50
57552;DHT22;43379;48.160;14.036;2023-03-04T15:40:27;8.80;75.80
57552;DHT22;43379;48.160;14.036;2023-03-04T15:42:55;8.70;75.10
57552;DHT22;43379;48.160;14.036;2023-03-04T15:45:26;8.60;75.20
57552;DHT22;43379;48.160;14.036;2023-03-04T15:47:52;8.60;75.40
57552;DHT22;43379;48.160;14.036;2023-03-04T15:50:19;8.50;75.80
57552;DHT22;43379;48.160;14.036;2023-03-04T15:52:45;8.40;75.70
57552;DHT22;43379;48.160;14.036;2023-03-04T15:55:19;8.40;76.20
57552;DHT22;43379;48.160;14.036;2023-03-04T15:57:47;8.30;76.30
57552;DHT22;43379;48.160;14.036;2023-03-04T16:00:15;8.20;76.30
57552;DHT22;43379;48.160;14.036;2023-03-04T16:02:41;8.00;76.10
57552;DHT22;43379;48.160;14.036;2023-03-04T16:05:07;8.00;76.40
57552;DHT22;43379;48.160;14.036;2023-03-04T16:07:33;7.80;76.60
57552;DHT22;43379;48.160;14.036;2023-03-04T16:10:04;7.70;76.60
57552;DHT22;43379;48.160;14.036;2023-03-04T16:12:31;7.70;76.90
57552;DHT22;43379;48.160;14.036;2023-03-04T16:14:57;7.50;77.30
57552;DHT22;43379;48.160;14.036;2023-03-04T16:17:23;7.40;77.10
57552;DHT22;43379;48.160;14.036;2023-03-04T16:19:49;7.30;76.90
57552;DHT22;43379;48.160;14.036;2023-03-04T16:22:17;7.10;77.30
57552;DHT22;43379;48.160;14.036;2023-03-04T16:24:44;7.00;77.40
57552;DHT22;43379;48.160;14.036;2023-03-04T16:27:14;6.90;77.60
57552;DHT22;43379;48.160;14.036;2023-03-04T16:29:40;6.90;77.60
57552;DHT22;43379;48.160;14.036;2023-03-04T16:32:06;6.80;77.30
57552;DHT22;43379;48.160;14.036;2023-03-04T16:34:32;6.60;77.70
57552;DHT22;43379;48.160;14.036;2023-03-04T16:37:02;6.60;77.80
57552;DHT22;43379;48.160;14.036;2023-03-04T16:39:29;6.40;78.20
57552;DHT22;43379;48.160;14.036;2023-03-04T16:41:56;6.30;78.30
57552;DHT22;43379;48.160;14.036;2023-03-04T16:44:21;6.20;78.30
57552;DHT22;43379;48.160;14.036;2023-03-04T16:46:47;6.10;78.40
57552;DHT22;43379;48.160;14.036;2023-03-04T16:49:13;6.00;78.80
57552;DHT22;43379;48.160;14.036;2023-03-04T16:51:42;5.80;79.30
57552;DHT22;43379;48.160;14.036;2023-03-04T16:54:15;5.80;79.70
57552;DHT22;43379;48.160;14.036;2023-03-04T16:56:41;5.80;79.60
57552;DHT22;43379;48.160;14.036;2023-03-04T16:59:08;5.70;79.70
57552;DHT22;43379;48.160;14.036;2023-03-04T17:01:35;5.70;79.50
57552;DHT22;43379;48.160;14.036;2023-03-04T17:04:01;5.60;79.50
57552;DHT22;43379;48.160;14.036;2023-03-04T17:06:27;5.50;79.60
57552;DHT22;43379;48.160;14.036;2023-03-04T17:08:53;5.50;79.60
57552;DHT22;43379;48.160;14.036;2023-03-04T17:11:20;5.30;80.10
57552;DHT22;43379;48.160;14.036;2023-03-04T17:13:48;5.20;80.60
57552;DHT22;43379;48.160;14.036;2023-03-04T17:16:14;5.10;80.30
57552;DHT22;43379;48.160;14.036;2023-03-04T17:18:40;5.10;80.20
57552;DHT22;43379;48.160;14.036;2023-03-04T17:21:10;5.00;80.10